Time;durP1;ratioP1;P1;durP2;ratioP2;P2;SDS_P1;SDS_P2;PMS_P1;PMS_P2;Temp;Humidity;BMP_temperature;BMP_pressure;BME280_temperature;BME280_humidity;BME280_pressure;Samples;Min_cycle;Max_cycle;Signal;HPM_P1;HPM_P2
2023/06/28 00:02:46;;;;;;;25.13;11.82;;;25.20;93.50;;;;;;5090853;28;20035;-67
2023/06/28 00:05:50;;;;;;;19.80;11.65;;;25.20;93.50;;;;;;5090893;28;20062;-67
2023/06/28 00:08:54;;;;;;;19.15;12.40;;;25.00;93.50;;;;;;5090716;28;20392;-67
2023/06/28 00:11:58;;;;;;;20.88;11.93;;;24.80;94.00;;;;;;5090853;28;20051;-67
2023/06/28 00:15:03;;;;;;;21.33;11.65;;;24.60;94.40;;;;;;5090501;28;20035;-67
2023/06/28 00:18:08;;;;;;;23.75;11.45;;;24.70;94.50;;;;;;5090521;28;20047;-67
2023/06/28 00:21:13;;;;;;;19.67;12.00;;;24.80;94.60;;;;;;5090579;28;20407;-67
2023/06/28 00:24:17;;;;;;;19.83;12.55;;;24.90;94.30;;;;;;5090800;28;20048;-67
2023/06/28 00:27:21;;;;;;;20.75;13.38;;;25.00;94.20;;;;;;5090632;28;20055;-67
2023/06/28 00:30:25;;;;;;;19.55;12.95;;;25.00;94.30;;;;;;5090793;28;20035;-67
2023/06/28 00:33:28;;;;;;;19.60;11.98;;;24.80;94.40;;;;;;5089540;28;20039;-67
2023/06/28 00:36:32;;;;;;;21.95;12.75;;;24.80;94.90;;;;;;5090448;28;20586;-67
2023/06/28 00:39:40;;;;;;;17.55;12.02;;;24.80;94.70;;;;;;5093098;28;20051;-67
2023/06/28 00:42:44;;;;;;;24.25;12.63;;;24.50;95.20;;;;;;5093547;28;20039;-67
2023/06/28 00:45:48;;;;;;;17.98;12.30;;;24.50;95.10;;;;;;5094284;28;20043;-67
2023/06/28 00:48:54;;;;;;;18.90;11.82;;;24.60;95.60;;;;;;5093264;28;20047;-67
2023/06/28 00:51:59;;;;;;;16.70;12.65;;;24.60;95.40;;;;;;5093332;28;20047;-67
2023/06/28 00:55:04;;;;;;;21.33;12.00;;;24.70;95.10;;;;;;5094409;28;20392;-67
2023/06/28 00:58:09;;;;;;;17.80;12.73;;;24.80;95.10;;;;;;5093229;28;20059;-67
2023/06/28 01:01:13;;;;;;;22.65;12.85;;;24.80;95.30;;;;;;5093232;28;20050;-67
2023/06/28 01:04:17;;;;;;;22.50;13.30;;;24.80;95.30;;;;;;5093872;28;20043;-67
2023/06/28 01:07:21;;;;;;;16.50;13.13;;;24.70;95.40;;;;;;5092880;28;20407;-67
2023/06/28 01:10:25;;;;;;;17.48;11.82;;;24.60;95.40;;;;;;5093554;28;20043;-67
2023/06/28 01:13:29;;;;;;;17.33;12.50;;;24.50;96.00;;;;;;5093219;28;20047;-67
2023/06/28 01:16:33;;;;;;;18.83;12.45;;;24.60;95.80;;;;;;5093006;28;20404;-66
2023/06/28 01:19:38;;;;;;;19.13;12.45;;;24.50;95.80;;;;;;5093318;28;20514;-67
2023/06/28 01:22:50;;;;;;;18.90;11.77;;;24.50;96.00;;;;;;5093924;28;20067;-67
2023/06/28 01:25:55;;;;;;;15.23;11.38;;;24.40;95.90;;;;;;5093024;28;20043;-67
2023/06/28 01:28:59;;;;;;;18.77;12.20;;;24.30;95.90;;;;;;5093731;28;20391;-67
2023/06/28 01:32:05;;;;;;;16.65;12.18;;;24.30;95.80;;;;;;5092557;28;20051;-67
2023/06/28 01:35:10;;;;;;;17.60;11.88;;;24.20;95.90;;;;;;5092534;28;20054;-67
2023/06/28 01:38:15;;;;;;;15.65;12.57;;;24.00;95.90;;;;;;5092848;28;20407;-67
2023/06/28 01:41:19;;;;;;;17.45;12.73;;;23.80;96.60;;;;;;5093326;28;20051;-67
2023/06/28 01:44:23;;;;;;;16.02;11.95;;;23.70;96.70;;;;;;5093235;28;20043;-67
2023/06/28 01:47:28;;;;;;;21.83;12.43;;;23.80;96.60;;;;;;5093244;28;20055;-67
2023/06/28 01:50:31;;;;;;;20.02;12.90;;;23.90;96.20;;;;;;5092081;28;20043;-67
2023/06/28 01:53:35;;;;;;;20.77;12.52;;;23.80;96.50;;;;;;5092327;28;20059;-68
2023/06/28 01:56:39;;;;;;;16.73;12.70;;;23.90;96.60;;;;;;5093087;28;20047;-67
2023/06/28 01:59:43;;;;;;;21.08;12.30;;;24.00;96.60;;;;;;5080303;28;20066;-67
2023/06/28 02:02:47;;;;;;;19.15;12.52;;;24.10;96.40;;;;;;5092760;28;20055;-66
2023/06/28 02:05:51;;;;;;;19.63;11.65;;;24.00;96.20;;;;;;5092178;28;20047;-67
2023/06/28 02:08:56;;;;;;;17.13;11.57;;;24.00;96.50;;;;;;5079985;28;20423;-67
2023/06/28 02:12:00;;;;;;;16.25;12.95;;;23.90;96.70;;;;;;5092014;28;20051;-67
2023/06/28 02:15:05;;;;;;;18.70;13.52;;;23.90;97.00;;;;;;5091772;28;20039;-67
2023/06/28 02:18:10;;;;;;;24.55;14.20;;;23.70;96.70;;;;;;5092590;28;20039;-67
2023/06/28 02:21:14;;;;;;;21.02;13.27;;;23.70;96.90;;;;;;5092730;28;20051;-67
2023/06/28 02:24:19;;;;;;;23.02;13.20;;;23.60;97.00;;;;;;5092278;28;20039;-67
2023/06/28 02:27:24;;;;;;;21.42;12.75;;;23.50;96.90;;;;;;5092354;28;20536;-67
2023/06/28 02:30:28;;;;;;;21.15;13.70;;;23.40;97.10;;;;;;5091308;28;20395;-67
2023/06/28 02:33:32;;;;;;;20.35;13.02;;;23.50;97.40;;;;;;5092086;28;20051;-67
2023/06/28 02:36:36;;;;;;;19.48;13.13;;;23.60;97.10;;;;;;5091270;28;20035;-67
2023/06/28 02:39:40;;;;;;;17.33;12.50;;;23.70;96.80;;;;;;5092167;28;20518;-67
2023/06/28 02:42:46;;;;;;;19.65;13.30;;;23.50;96.90;;;;;;5092104;28;20058;-67
2023/06/28 02:45:50;;;;;;;16.88;13.18;;;23.50;97.40;;;;;;5091948;28;20179;-67
2023/06/28 02:48:54;;;;;;;20.17;12.02;;;23.50;97.10;;;;;;5092260;28;20047;-67
2023/06/28 02:51:58;;;;;;;18.95;12.68;;;23.60;96.90;;;;;;5091919;28;20051;-67
2023/06/28 02:55:02;;;;;;;19.02;12.15;;;23.70;96.90;;;;;;5091804;28;20639;-67
2023/06/28 02:58:07;;;;;;;17.25;12.00;;;23.80;96.70;;;;;;5090992;28;20039;-67
2023/06/28 03:01:12;;;;;;;16.85;11.98;;;23.80;96.40;;;;;;5090651;28;20051;-67
2023/06/28 03:04:15;;;;;;;16.45;11.27;;;23.80;96.00;;;;;;5090800;28;20153;-68
2023/06/28 03:07:20;;;;;;;15.35;11.40;;;23.60;96.00;;;;;;5090970;28;20043;-68
2023/06/28 03:10:25;;;;;;;15.80;10.32;;;23.60;96.20;;;;;;5090855;28;20051;-68
2023/06/28 03:13:29;;;;;;;18.52;11.13;;;23.50;96.00;;;;;;5090874;28;20059;-68
2023/06/28 03:16:33;;;;;;;23.45;11.13;;;23.60;95.90;;;;;;5090874;28;20062;-68
2023/06/28 03:19:37;;;;;;;16.20;10.40;;;23.50;95.90;;;;;;5091226;28;20434;-68
2023/06/28 03:22:41;;;;;;;15.55;9.93;;;23.50;96.20;;;;;;5090723;28;20392;-68
2023/06/28 03:25:45;;;;;;;13.95;9.95;;;23.60;95.80;;;;;;5090532;28;20043;-67
2023/06/28 03:28:49;;;;;;;17.90;9.93;;;23.60;95.80;;;;;;5090402;28;20043;-67
2023/06/28 03:31:55;;;;;;;12.48;9.70;;;23.50;96.00;;;;;;5090525;28;20042;-67
2023/06/28 03:35:00;;;;;;;22.63;11.75;;;23.50;96.40;;;;;;5090551;28;20047;-67
2023/06/28 03:38:03;;;;;;;12.57;9.98;;;23.50;96.20;;;;;;5090878;28;20059;-67
2023/06/28 03:41:07;;;;;;;14.82;11.00;;;23.40;96.30;;;;;;5090205;28;20051;-66
2023/06/28 03:44:11;;;;;;;16.00;10.80;;;23.10;96.70;;;;;;5090479;28;20502;-67
2023/06/28 03:47:16;;;;;;;18.25;12.75;;;23.10;97.20;;;;;;5091127;28;20044;-68
2023/06/28 03:50:20;;;;;;;16.73;12.07;;;23.00;97.40;;;;;;5091129;28;20051;-66
2023/06/28 03:53:25;;;;;;;17.83;12.52;;;23.00;97.70;;;;;;5090362;28;20039;-67
2023/06/28 03:56:29;;;;;;;17.02;12.65;;;23.10;97.60;;;;;;5090883;28;20059;-67
2023/06/28 03:59:33;;;;;;;16.25;11.98;;;23.30;97.50;;;;;;5090021;28;20047;-67
2023/06/28 04:02:38;;;;;;;20.17;13.05;;;23.40;97.40;;;;;;5091260;28;20106;-68
2023/06/28 04:05:42;;;;;;;14.55;12.93;;;23.50;97.10;;;;;;5090818;28;20055;-67
2023/06/28 04:08:47;;;;;;;21.67;13.75;;;23.40;97.30;;;;;;5090691;28;20043;-67
2023/06/28 04:11:50;;;;;;;22.17;14.40;;;23.40;97.30;;;;;;5090561;28;20043;-68
2023/06/28 04:14:55;;;;;;;24.23;14.15;;;23.40;97.70;;;;;;5094054;28;20059;-68
2023/06/28 04:17:58;;;;;;;24.35;13.93;;;23.50;97.80;;;;;;5095031;28;20043;-68
2023/06/28 04:21:02;;;;;;;21.30;14.13;;;23.50;97.90;;;;;;5094711;28;20051;-67
2023/06/28 04:24:06;;;;;;;26.60;16.15;;;23.60;97.80;;;;;;5095452;28;20047;-67
2023/06/28 04:27:10;;;;;;;19.88;13.82;;;23.60;97.80;;;;;;5094716;28;20403;-68
2023/06/28 04:30:15;;;;;;;22.05;15.13;;;23.70;98.00;;;;;;5094348;28;20510;-68
2023/06/28 04:33:22;;;;;;;25.92;15.20;;;23.70;97.90;;;;;;5093660;28;20357;-68
2023/06/28 04:36:26;;;;;;;31.70;16.45;;;23.80;97.70;;;;;;5094767;28;20047;-67
2023/06/28 04:39:31;;;;;;;23.40;15.90;;;23.70;98.10;;;;;;5094470;28;20055;-67
2023/06/28 04:42:35;;;;;;;24.90;14.90;;;23.80;98.30;;;;;;5094894;28;20498;-68
2023/06/28 04:45:39;;;;;;;23.60;14.40;;;23.90;98.10;;;;;;5094933;28;20356;-68
2023/06/28 04:48:43;;;;;;;27.05;15.02;;;24.00;98.10;;;;;;5094474;28;20098;-68
2023/06/28 04:51:48;;;;;;;27.10;14.82;;;24.10;98.00;;;;;;5094528;28;20463;-68
2023/06/28 04:54:51;;;;;;;32.65;15.20;;;24.30;97.80;;;;;;5094143;28;20059;-68
2023/06/28 04:57:55;;;;;;;38.45;16.77;;;24.30;97.60;;;;;;5094450;28;20047;-68
2023/06/28 05:01:05;;;;;;;24.92;14.65;;;24.30;97.70;;;;;;5093125;28;20051;-68
2023/06/28 05:04:09;;;;;;;20.52;14.77;;;24.20;98.10;;;;;;5094037;28;20039;-68
2023/06/28 05:07:13;;;;;;;23.42;14.63;;;24.30;98.10;;;;;;5093988;28;20047;-68
2023/06/28 05:10:18;;;;;;;24.98;13.23;;;24.40;98.00;;;;;;5094210;28;20043;-68
2023/06/28 05:13:22;;;;;;;20.35;13.50;;;24.60;97.70;;;;;;5094188;28;20396;-68
2023/06/28 05:16:26;;;;;;;20.02;12.35;;;24.70;97.50;;;;;;5093857;28;20047;-64
2023/06/28 05:19:30;;;;;;;20.77;12.60;;;25.00;97.50;;;;;;5093494;28;20396;-64
2023/06/28 05:22:34;;;;;;;24.65;11.85;;;25.20;96.70;;;;;;5093188;28;20419;-64
2023/06/28 05:25:39;;;;;;;21.73;11.48;;;25.40;96.80;;;;;;5092716;28;20043;-64
2023/06/28 05:28:43;;;;;;;21.50;10.88;;;25.50;96.30;;;;;;5093620;28;20047;-64
2023/06/28 05:31:47;;;;;;;24.13;11.75;;;25.70;96.00;;;;;;5093435;28;20511;-64
2023/06/28 05:34:50;;;;;;;25.50;11.95;;;26.00;95.70;;;;;;5093764;28;20047;-64
2023/06/28 05:37:54;;;;;;;22.75;10.77;;;26.00;95.50;;;;;;5093072;28;20051;-64
2023/06/28 05:41:12;;;;;;;24.95;10.85;;;26.20;95.40;;;;;;5093204;28;20059;-64
2023/06/28 05:44:20;;;;;;;19.50;10.48;;;26.40;95.00;;;;;;5093228;28;20043;-64
2023/06/28 05:47:24;;;;;;;22.20;10.88;;;26.50;94.50;;;;;;5093435;28;20043;-64
2023/06/28 05:50:29;;;;;;;16.95;10.23;;;26.50;94.50;;;;;;5092242;28;20404;-64
2023/06/28 05:53:33;;;;;;;23.20;10.80;;;26.60;94.40;;;;;;5093006;28;20491;-64
2023/06/28 05:56:37;;;;;;;25.13;10.93;;;26.60;94.30;;;;;;5093218;28;20043;-64
2023/06/28 05:59:41;;;;;;;18.42;10.32;;;26.90;94.40;;;;;;5093194;28;20047;-64
2023/06/28 06:02:45;;;;;;;16.05;10.60;;;26.90;94.10;;;;;;5092981;28;20399;-64
2023/06/28 06:05:49;;;;;;;22.05;10.10;;;26.90;93.70;;;;;;5093020;28;20043;-64
2023/06/28 06:08:53;;;;;;;18.80;10.23;;;27.10;93.80;;;;;;5092774;28;20494;-70
2023/06/28 06:11:57;;;;;;;12.95;9.13;;;27.20;93.40;;;;;;5092002;28;20043;-66
2023/06/28 06:15:01;;;;;;;13.75;9.35;;;27.40;93.20;;;;;;5092616;28;20051;-65
2023/06/28 06:18:05;;;;;;;17.20;9.95;;;27.50;93.00;;;;;;5091212;28;20043;-65
2023/06/28 06:21:09;;;;;;;14.77;9.88;;;27.60;92.90;;;;;;5092051;28;20182;-65
2023/06/28 06:24:13;;;;;;;16.75;8.80;;;27.70;92.60;;;;;;5092489;28;20042;-66
2023/06/28 06:27:17;;;;;;;13.80;8.75;;;27.90;92.20;;;;;;5092301;28;20503;-65
2023/06/28 06:30:21;;;;;;;16.35;9.75;;;28.30;91.50;;;;;;5092415;28;20059;-65
2023/06/28 06:33:25;;;;;;;12.52;8.35;;;28.30;91.40;;;;;;5092531;28;20055;-65
2023/06/28 06:36:29;;;;;;;14.98;9.25;;;28.50;91.40;;;;;;5091864;28;20047;-65
2023/06/28 06:39:33;;;;;;;14.23;9.23;;;28.70;90.90;;;;;;5091842;28;20055;-65
2023/06/28 06:42:38;;;;;;;25.95;8.93;;;28.80;90.60;;;;;;5091907;28;20047;-65
2023/06/28 06:45:42;;;;;;;14.13;9.80;;;29.00;90.60;;;;;;5092143;28;20051;-65
2023/06/28 06:48:47;;;;;;;12.68;8.57;;;29.20;89.70;;;;;;5092139;28;20071;-65
2023/06/28 06:51:51;;;;;;;21.80;8.95;;;29.50;90.00;;;;;;5091728;28;20043;-65
2023/06/28 06:54:55;;;;;;;13.32;8.07;;;29.90;89.50;;;;;;5091865;28;20047;-65
2023/06/28 06:57:58;;;;;;;15.70;9.82;;;30.20;89.00;;;;;;5091761;28;20071;-65
2023/06/28 07:01:03;;;;;;;16.75;8.25;;;30.30;87.80;;;;;;5091619;28;20625;-65
2023/06/28 07:04:07;;;;;;;15.55;7.35;;;30.40;88.00;;;;;;5091795;28;20395;-65
2023/06/28 07:07:11;;;;;;;19.83;8.40;;;30.60;87.10;;;;;;5090123;28;20047;-64
2023/06/28 07:10:15;;;;;;;13.15;7.60;;;30.70;87.30;;;;;;5091703;28;20051;-66
2023/06/28 07:13:19;;;;;;;21.00;8.73;;;30.90;86.90;;;;;;5090681;28;20523;-65
2023/06/28 07:16:24;;;;;;;22.00;8.60;;;31.20;86.40;;;;;;5091472;28;20043;-65
2023/06/28 07:19:28;;;;;;;15.25;7.53;;;31.40;86.40;;;;;;5091487;28;20067;-66
2023/06/28 07:22:32;;;;;;;18.98;7.68;;;31.20;85.70;;;;;;5091280;28;20055;-68
2023/06/28 07:25:36;;;;;;;27.08;8.10;;;30.90;86.70;;;;;;5091139;28;20043;-68
2023/06/28 07:28:41;;;;;;;14.25;6.88;;;30.60;87.20;;;;;;5091279;28;20047;-68
2023/06/28 07:31:46;;;;;;;27.88;8.15;;;30.30;87.10;;;;;;5091037;28;20051;-68
2023/06/28 07:34:50;;;;;;;19.77;8.07;;;30.10;87.50;;;;;;5091469;28;20062;-68
2023/06/28 07:37:54;;;;;;;10.52;6.82;;;30.20;88.00;;;;;;5090952;28;20404;-66
2023/06/28 07:40:58;;;;;;;11.80;6.78;;;30.40;86.90;;;;;;5090521;28;20059;-67
2023/06/28 07:44:02;;;;;;;16.00;7.03;;;30.70;86.00;;;;;;5090842;28;20043;-66
2023/06/28 07:47:06;;;;;;;13.32;6.57;;;31.10;85.20;;;;;;5091024;28;20051;-66
2023/06/28 07:50:11;;;;;;;11.25;6.85;;;31.30;84.20;;;;;;5090331;28;20047;-67
2023/06/28 07:53:15;;;;;;;9.98;6.95;;;31.60;82.90;;;;;;5090781;28;20043;-65
2023/06/28 07:56:20;;;;;;;16.88;8.10;;;31.90;82.30;;;;;;5091055;28;20038;-64
2023/06/28 07:59:24;;;;;;;16.48;6.63;;;32.10;81.00;;;;;;5090788;28;20039;-67
2023/06/28 08:02:28;;;;;;;12.80;6.82;;;32.30;80.30;;;;;;5090789;28;20051;-65
2023/06/28 08:05:31;;;;;;;14.50;7.82;;;32.40;80.20;;;;;;5090739;28;20043;-65
2023/06/28 08:08:35;;;;;;;6.78;5.78;;;32.60;79.90;;;;;;5090989;28;20051;-65
2023/06/28 08:11:40;;;;;;;13.15;6.90;;;32.60;78.60;;;;;;5090584;28;20039;-63
2023/06/28 08:14:44;;;;;;;11.50;6.75;;;32.70;77.20;;;;;;5090644;28;20055;-65
2023/06/28 08:17:48;;;;;;;10.40;6.28;;;32.80;77.60;;;;;;5090622;28;20506;-65
2023/06/28 08:20:53;;;;;;;17.17;7.20;;;32.90;77.00;;;;;;5090395;28;20051;-66
2023/06/28 08:23:57;;;;;;;17.17;7.03;;;32.90;77.50;;;;;;5090649;28;20047;-68
2023/06/28 08:27:01;;;;;;;13.95;6.07;;;32.90;78.20;;;;;;5090678;28;20395;-68
2023/06/28 08:30:06;;;;;;;9.98;5.80;;;33.00;77.90;;;;;;5090250;28;20063;-70
2023/06/28 08:33:11;;;;;;;10.55;6.20;;;33.10;75.90;;;;;;5088357;28;20046;-71
2023/06/28 08:36:15;;;;;;;11.45;6.75;;;33.20;75.00;;;;;;5089316;28;20044;-71
2023/06/28 08:39:20;;;;;;;7.53;5.65;;;33.20;75.30;;;;;;5089021;28;20070;-70
2023/06/28 08:42:25;;;;;;;11.05;6.60;;;33.30;73.60;;;;;;5089298;28;20697;-71
2023/06/28 08:45:32;;;;;;;13.10;6.30;;;33.20;73.60;;;;;;5089243;28;20476;-70
2023/06/28 08:48:37;;;;;;;14.13;6.20;;;33.20;73.00;;;;;;5090234;28;20043;-71
2023/06/28 08:51:41;;;;;;;10.18;6.25;;;33.10;73.60;;;;;;5090409;28;20039;-71
2023/06/28 08:54:46;;;;;;;10.23;5.95;;;33.20;73.40;;;;;;5090057;28;20043;-62
2023/06/28 08:57:50;;;;;;;12.07;5.95;;;33.20;73.30;;;;;;5089479;28;20047;-63
2023/06/28 09:00:55;;;;;;;11.68;5.80;;;33.30;72.50;;;;;;5092924;28;20047;-62
2023/06/28 09:03:59;;;;;;;11.30;7.38;;;33.20;72.90;;;;;;5094100;28;20498;-61
2023/06/28 09:07:04;;;;;;;18.67;7.40;;;33.20;72.70;;;;;;5093523;28;20055;-65
2023/06/28 09:10:09;;;;;;;13.75;6.45;;;33.30;72.40;;;;;;5093965;28;20035;-63
2023/06/28 09:13:19;;;;;;;7.32;5.90;;;33.30;72.40;;;;;;5093999;28;20248;-63
2023/06/28 09:16:23;;;;;;;11.55;6.85;;;33.40;72.30;;;;;;5093325;28;20050;-65
2023/06/28 09:19:27;;;;;;;12.27;5.82;;;33.20;71.90;;;;;;5093753;28;20051;-63
2023/06/28 09:22:31;;;;;;;11.65;5.95;;;34.00;71.10;;;;;;5093548;28;20046;-64
2023/06/28 09:25:35;;;;;;;9.23;5.80;;;35.00;70.50;;;;;;5093508;28;20047;-63
2023/06/28 09:28:39;;;;;;;8.77;5.72;;;36.20;68.30;;;;;;5093451;28;20189;-63
2023/06/28 09:31:45;;;;;;;12.55;6.47;;;36.60;66.40;;;;;;5093423;28;20047;-61
2023/06/28 09:34:49;;;;;;;12.60;6.65;;;37.10;67.00;;;;;;5093154;28;20055;-62
2023/06/28 09:37:55;;;;;;;13.05;6.82;;;37.00;67.00;;;;;;5092868;28;20047;-62
2023/06/28 09:41:01;;;;;;;10.18;6.50;;;36.50;67.90;;;;;;5092233;28;20051;-61
2023/06/28 09:44:06;;;;;;;21.13;7.43;;;36.60;68.30;;;;;;5092110;28;20039;-61
2023/06/28 09:47:10;;;;;;;8.35;5.72;;;36.20;68.50;;;;;;5093415;28;20459;-65
2023/06/28 09:50:15;;;;;;;10.82;6.18;;;35.60;69.60;;;;;;5092721;28;20490;-65
2023/06/28 09:53:21;;;;;;;11.52;6.00;;;35.30;70.40;;;;;;5091506;28;20051;-65
2023/06/28 09:56:35;;;;;;;10.63;6.05;;;35.00;70.90;;;;;;5092606;28;20440;-65
2023/06/28 09:59:39;;;;;;;9.15;5.55;;;34.80;71.30;;;;;;5092737;28;20418;-65
2023/06/28 10:02:45;;;;;;;9.70;5.82;;;34.60;70.60;;;;;;5093020;28;20051;-64
2023/06/28 10:05:50;;;;;;;12.07;5.88;;;34.50;70.30;;;;;;5092725;28;20051;-66
2023/06/28 10:08:56;;;;;;;16.73;6.72;;;34.30;70.80;;;;;;5092618;28;20047;-66
2023/06/28 10:12:02;;;;;;;9.30;5.38;;;34.10;71.50;;;;;;5092147;28;20067;-66
2023/06/28 10:15:10;;;;;;;12.60;5.93;;;34.00;73.10;;;;;;5091920;28;20047;-67
2023/06/28 10:18:15;;;;;;;17.15;6.45;;;33.90;73.30;;;;;;5092144;28;20047;-66
2023/06/28 10:21:20;;;;;;;9.13;5.65;;;33.80;73.20;;;;;;5091604;28;20384;-65
2023/06/28 10:24:31;;;;;;;9.50;6.25;;;33.70;72.80;;;;;;5092210;28;20422;-64
2023/06/28 10:27:36;;;;;;;14.13;6.43;;;33.70;73.50;;;;;;5091782;28;20043;-64
2023/06/28 10:30:41;;;;;;;16.25;5.65;;;33.60;73.20;;;;;;5091961;28;20051;-64
2023/06/28 10:33:47;;;;;;;11.88;6.10;;;33.60;73.10;;;;;;5091492;28;20035;-64
2023/06/28 10:36:51;;;;;;;17.80;6.18;;;33.60;73.30;;;;;;5092249;28;20047;-65
2023/06/28 10:39:56;;;;;;;16.60;6.85;;;33.60;73.70;;;;;;5092087;28;20043;-64
2023/06/28 10:42:59;;;;;;;16.55;6.20;;;33.50;73.30;;;;;;5092144;28;20047;-64
2023/06/28 10:46:22;;;;;;;12.07;5.97;;;33.40;74.10;;;;;;5092063;28;20419;-64
2023/06/28 10:49:33;;;;;;;6.30;4.75;;;33.30;74.60;;;;;;5091990;28;20055;-64
2023/06/28 10:52:48;;;;;;;8.60;5.22;;;33.20;74.90;;;;;;5092214;28;20047;-64
2023/06/28 10:56:08;;;;;;;12.00;5.53;;;33.20;74.90;;;;;;5092179;28;20048;-63
2023/06/28 10:59:12;;;;;;;10.60;6.10;;;33.10;75.30;;;;;;5091766;28;20035;-64
2023/06/28 11:02:16;;;;;;;8.38;5.53;;;33.10;75.40;;;;;;5091494;28;20067;-64
2023/06/28 11:05:45;;;;;;;12.40;5.85;;;33.00;74.70;;;;;;5091706;28;20043;-64
2023/06/28 11:08:51;;;;;;;7.85;5.22;;;32.90;75.00;;;;;;5090295;28;20043;-64
2023/06/28 11:11:57;;;;;;;7.57;5.40;;;32.90;75.60;;;;;;5091567;28;20039;-64
2023/06/28 11:15:07;;;;;;;9.57;5.22;;;32.80;75.30;;;;;;5091878;28;20531;-64
2023/06/28 11:18:20;;;;;;;10.02;5.57;;;32.70;75.90;;;;;;5091423;28;20043;-64
2023/06/28 11:21:25;;;;;;;10.43;7.43;;;32.70;76.60;;;;;;5091507;28;20051;-64
2023/06/28 11:24:32;;;;;;;9.77;5.65;;;32.60;76.40;;;;;;5090808;28;20039;-64
2023/06/28 11:27:40;;;;;;;10.57;5.55;;;32.60;77.20;;;;;;5091634;28;20047;-64
2023/06/28 11:30:51;;;;;;;11.90;5.70;;;32.60;77.40;;;;;;5090720;28;20047;-64
2023/06/28 11:33:55;;;;;;;9.95;6.18;;;32.50;77.20;;;;;;5091148;28;20110;-64
2023/06/28 11:37:00;;;;;;;8.95;5.53;;;32.40;77.30;;;;;;5091096;28;20043;-64
2023/06/28 11:40:05;;;;;;;8.40;4.80;;;32.40;76.70;;;;;;5091089;28;20055;-64
2023/06/28 11:43:09;;;;;;;8.07;5.10;;;32.40;77.20;;;;;;5091351;28;20051;-64
2023/06/28 11:46:18;;;;;;;9.50;5.35;;;32.40;77.40;;;;;;5091191;28;20054;-64
2023/06/28 11:49:22;;;;;;;18.40;5.78;;;32.40;77.30;;;;;;5090321;28;20047;-64
2023/06/28 11:52:26;;;;;;;13.13;5.60;;;32.50;77.50;;;;;;5090690;28;20070;-63
2023/06/28 11:55:30;;;;;;;12.68;5.90;;;33.40;75.40;;;;;;5090558;28;20113;-64
2023/06/28 11:58:36;;;;;;;13.00;5.63;;;34.60;73.10;;;;;;5090681;28;20047;-64
2023/06/28 12:01:40;;;;;;;12.32;4.90;;;35.30;70.40;;;;;;5090643;28;20629;-64
2023/06/28 12:04:59;;;;;;;7.47;4.97;;;35.20;69.80;;;;;;5091136;28;20074;-64
2023/06/28 12:08:04;;;;;;;9.32;5.00;;;34.90;71.40;;;;;;5090952;28;20059;-64
2023/06/28 12:11:13;;;;;;;11.25;5.15;;;35.30;70.20;;;;;;5090868;28;20047;-64
2023/06/28 12:14:18;;;;;;;10.57;4.87;;;35.50;69.20;;;;;;5090807;28;20040;-64
2023/06/28 12:17:22;;;;;;;7.25;4.93;;;35.10;68.00;;;;;;5091077;28;20039;-64
2023/06/28 12:20:26;;;;;;;12.95;5.20;;;34.90;70.00;;;;;;5090805;28;20416;-64
2023/06/28 12:23:30;;;;;;;7.75;4.13;;;35.50;69.40;;;;;;5091124;28;20047;-63
2023/06/28 12:26:34;;;;;;;12.23;4.93;;;35.60;68.10;;;;;;5090583;28;20044;-63
2023/06/28 12:29:38;;;;;;;10.68;5.18;;;35.40;67.20;;;;;;5090647;28;20498;-63
2023/06/28 12:32:44;;;;;;;13.02;5.95;;;35.20;68.70;;;;;;5090673;28;20055;-64
2023/06/28 12:35:49;;;;;;;8.70;5.25;;;35.30;67.30;;;;;;5093733;28;20043;-63
2023/06/28 12:38:52;;;;;;;9.30;4.53;;;35.20;65.40;;;;;;5094167;28;20059;-65
2023/06/28 12:42:08;;;;;;;7.80;4.63;;;34.60;66.70;;;;;;5094629;28;20055;-65
2023/06/28 12:45:14;;;;;;;7.38;4.82;;;34.10;68.70;;;;;;5094510;28;20035;-66
2023/06/28 12:48:21;;;;;;;12.45;5.68;;;33.70;69.80;;;;;;5094834;28;20502;-64
2023/06/28 12:51:25;;;;;;;13.82;5.20;;;33.40;71.10;;;;;;5094621;28;20039;-65
2023/06/28 12:54:29;;;;;;;8.80;5.80;;;33.10;72.00;;;;;;5094616;28;20502;-66
2023/06/28 12:57:33;;;;;;;10.27;5.57;;;32.90;72.50;;;;;;5094424;28;20503;-65
2023/06/28 13:00:38;;;;;;;12.35;5.43;;;32.70;73.40;;;;;;5094383;28;20043;-63
2023/06/28 13:03:41;;;;;;;9.63;5.28;;;32.60;72.80;;;;;;5094431;28;20051;-66
2023/06/28 13:06:45;;;;;;;12.30;5.68;;;32.50;73.30;;;;;;5094335;28;20047;-63
2023/06/28 13:09:49;;;;;;;18.45;5.93;;;32.40;73.00;;;;;;5093817;28;20376;-65
2023/06/28 13:12:53;;;;;;;20.23;6.40;;;32.30;73.80;;;;;;5092437;28;20502;-65
2023/06/28 13:15:58;;;;;;;11.13;5.10;;;32.20;74.40;;;;;;5092234;28;20035;-65
2023/06/28 13:19:02;;;;;;;12.65;5.72;;;32.10;74.00;;;;;;5093438;28;20039;-65
2023/06/28 13:22:05;;;;;;;11.27;5.80;;;32.10;74.00;;;;;;5093847;28;20059;-64
2023/06/28 13:25:09;;;;;;;65.70;14.18;;;32.00;73.80;;;;;;5094006;28;20054;-64
2023/06/28 13:28:14;;;;;;;39.45;9.13;;;32.00;74.20;;;;;;5093585;28;20055;-63
2023/06/28 13:31:17;;;;;;;33.13;7.70;;;31.90;73.20;;;;;;5093481;28;20047;-64
2023/06/28 13:34:21;;;;;;;16.88;5.45;;;31.90;72.70;;;;;;5093490;28;20043;-63
2023/06/28 13:37:25;;;;;;;7.88;4.90;;;31.80;73.40;;;;;;5092508;28;20541;-64
2023/06/28 13:40:30;;;;;;;6.95;4.93;;;31.80;73.60;;;;;;5092878;28;20043;-63
2023/06/28 13:43:34;;;;;;;8.68;5.38;;;31.60;74.40;;;;;;5093729;28;20047;-63
2023/06/28 13:46:38;;;;;;;8.90;4.53;;;31.60;75.00;;;;;;5092425;28;20047;-63
2023/06/28 13:49:42;;;;;;;12.52;4.72;;;31.60;72.50;;;;;;5093248;28;20447;-63
2023/06/28 13:52:46;;;;;;;22.02;5.93;;;31.60;74.20;;;;;;5093798;28;20047;-63
2023/06/28 13:55:51;;;;;;;12.65;5.20;;;31.50;74.50;;;;;;5093371;28;20047;-63
2023/06/28 13:58:55;;;;;;;10.18;5.45;;;31.50;74.10;;;;;;5093056;28;20066;-63
2023/06/28 14:01:59;;;;;;;8.43;4.82;;;31.60;74.50;;;;;;5092915;28;20058;-63
2023/06/28 14:05:03;;;;;;;9.40;4.90;;;31.50;74.20;;;;;;5093005;28;20039;-63
2023/06/28 14:08:07;;;;;;;9.77;5.93;;;31.40;74.20;;;;;;5093056;28;20055;-63
2023/06/28 14:11:11;;;;;;;7.93;5.65;;;31.40;75.00;;;;;;5093340;28;20043;-63
2023/06/28 14:14:15;;;;;;;12.85;5.13;;;31.50;74.90;;;;;;5092997;28;20043;-63
2023/06/28 14:17:19;;;;;;;9.95;4.80;;;31.50;75.00;;;;;;5093188;28;20055;-63
2023/06/28 14:20:23;;;;;;;63.00;10.88;;;31.50;75.70;;;;;;5092848;28;20051;-63
2023/06/28 14:23:27;;;;;;;95.35;13.85;;;31.50;76.20;;;;;;5092600;28;20047;-63
2023/06/28 14:26:31;;;;;;;19.30;5.88;;;31.40;76.00;;;;;;5092131;28;20043;-64
2023/06/28 14:29:35;;;;;;;9.20;4.47;;;31.40;76.60;;;;;;5092064;28;20039;-64
2023/06/28 14:32:40;;;;;;;9.50;4.53;;;31.40;74.40;;;;;;5092547;28;20515;-64
2023/06/28 14:35:44;;;;;;;10.80;4.63;;;31.40;74.10;;;;;;5091493;28;20054;-64
2023/06/28 14:38:48;;;;;;;9.45;4.70;;;31.40;74.70;;;;;;5092158;28;20055;-64
2023/06/28 14:41:52;;;;;;;9.23;4.97;;;31.40;75.40;;;;;;5091193;28;20059;-64
2023/06/28 14:44:56;;;;;;;11.52;5.57;;;31.60;74.90;;;;;;5091926;28;20039;-66
2023/06/28 14:48:00;;;;;;;6.63;4.63;;;32.90;71.50;;;;;;5089722;28;20050;-65
2023/06/28 14:51:04;;;;;;;13.68;5.35;;;33.50;70.00;;;;;;5089367;28;20400;-64
2023/06/28 14:54:07;;;;;;;10.88;5.53;;;34.00;67.30;;;;;;5089936;28;20057;-64
2023/06/28 14:57:11;;;;;;;15.55;5.30;;;34.40;68.00;;;;;;5090529;28;20073;-65
2023/06/28 15:00:15;;;;;;;11.30;4.63;;;34.80;65.20;;;;;;5091894;28;20055;-64
2023/06/28 15:03:19;;;;;;;14.40;5.32;;;35.30;65.90;;;;;;5089806;28;20047;-64
2023/06/28 15:06:23;;;;;;;10.15;4.72;;;35.50;67.70;;;;;;5089856;28;20046;-65
2023/06/28 15:09:28;;;;;;;9.18;4.30;;;35.40;66.40;;;;;;5091411;28;20051;-63
2023/06/28 15:12:32;;;;;;;19.88;5.75;;;34.90;68.40;;;;;;5091550;28;20043;-63
2023/06/28 15:15:36;;;;;;;13.18;5.68;;;34.20;69.50;;;;;;5091848;28;20047;-63
2023/06/28 15:18:40;;;;;;;14.13;5.40;;;33.50;70.20;;;;;;5091764;28;20043;-63
2023/06/28 15:21:44;;;;;;;6.80;4.60;;;32.90;70.60;;;;;;5091247;28;20055;-64
2023/06/28 15:24:48;;;;;;;10.77;4.55;;;32.50;71.90;;;;;;5091139;28;20642;-64
2023/06/28 15:27:52;;;;;;;9.50;4.97;;;32.20;71.00;;;;;;5091441;28;20051;-63
2023/06/28 15:30:56;;;;;;;17.88;5.63;;;32.00;71.90;;;;;;5091527;28;20255;-63
2023/06/28 15:34:00;;;;;;;7.28;4.47;;;31.80;72.50;;;;;;5091484;28;20396;-63
2023/06/28 15:37:04;;;;;;;15.07;5.07;;;31.80;71.70;;;;;;5091494;28;20051;-63
2023/06/28 15:40:08;;;;;;;12.95;5.07;;;31.70;72.60;;;;;;5091270;28;20059;-64
2023/06/28 15:43:12;;;;;;;11.93;5.40;;;31.60;73.00;;;;;;5090851;28;20051;-63
2023/06/28 15:46:32;;;;;;;11.75;5.57;;;31.80;74.40;;;;;;5091494;28;20055;-62
2023/06/28 15:49:36;;;;;;;8.97;4.37;;;33.10;72.20;;;;;;5091005;28;20055;-63